sensor_id;sensor_type;location;lat;lon;timestamp;temperature;humidity
8095;DHT22;4090;49.270;8.696;2023-04-03T00:01:23;8.10;99.90
8095;DHT22;4090;49.270;8.696;2023-04-03T00:04:07;8.00;99.90
8095;DHT22;4090;49.270;8.696;2023-04-03T00:06:49;8.00;99.90
8095;DHT22;4090;49.270;8.696;2023-04-03T00:09:30;8.00;99.90
8095;DHT22;4090;49.270;8.696;2023-04-03T00:12:12;7.90;99.90
8095;DHT22;4090;49.270;8.696;2023-04-03T00:14:54;7.90;99.90
8095;DHT22;4090;49.270;8.696;2023-04-03T00:17:36;7.90;99.90
8095;DHT22;4090;49.270;8.696;2023-04-03T00:20:19;7.80;99.90
8095;DHT22;4090;49.270;8.696;2023-04-03T00:23:01;7.80;99.90
8095;DHT22;4090;49.270;8.696;2023-04-03T00:25:43;7.80;99.90
8095;DHT22;4090;49.270;8.696;2023-04-03T00:28:24;7.70;99.90
8095;DHT22;4090;49.270;8.696;2023-04-03T00:31:07;7.70;99.90
8095;DHT22;4090;49.270;8.696;2023-04-03T00:33:49;7.70;99.90
8095;DHT22;4090;49.270;8.696;2023-04-03T00:36:32;7.70;99.90
8095;DHT22;4090;49.270;8.696;2023-04-03T00:39:14;7.60;99.90
8095;DHT22;4090;49.270;8.696;2023-04-03T00:41:56;7.60;99.90
8095;DHT22;4090;49.270;8.696;2023-04-03T00:47:38;7.50;99.90
8095;DHT22;4090;49.270;8.696;2023-04-03T00:50:20;7.50;99.90
8095;DHT22;4090;49.270;8.696;2023-04-03T00:53:03;7.50;99.90
8095;DHT22;4090;49.270;8.696;2023-04-03T00:55:45;7.50;99.90
8095;DHT22;4090;49.270;8.696;2023-04-03T00:58:28;7.40;99.90
8095;DHT22;4090;49.270;8.696;2023-04-03T01:01:15;7.40;99.90
8095;DHT22;4090;49.270;8.696;2023-04-03T01:03:58;7.30;99.90
8095;DHT22;4090;49.270;8.696;2023-04-03T01:06:40;7.30;99.90
8095;DHT22;4090;49.270;8.696;2023-04-03T01:09:24;7.30;99.90
8095;DHT22;4090;49.270;8.696;2023-04-03T01:12:15;7.20;99.90
8095;DHT22;4090;49.270;8.696;2023-04-03T01:14:58;7.20;99.90
8095;DHT22;4090;49.270;8.696;2023-04-03T01:17:41;7.20;99.90
8095;DHT22;4090;49.270;8.696;2023-04-03T01:20:36;7.20;99.90
8095;DHT22;4090;49.270;8.696;2023-04-03T01:23:31;7.20;99.90
8095;DHT22;4090;49.270;8.696;2023-04-03T01:26:15;7.10;99.90
8095;DHT22;4090;49.270;8.696;2023-04-03T01:28:58;7.10;99.90
8095;DHT22;4090;49.270;8.696;2023-04-03T01:31:45;7.10;99.90
8095;DHT22;4090;49.270;8.696;2023-04-03T01:34:29;7.10;99.90
8095;DHT22;4090;49.270;8.696;2023-04-03T01:37:11;7.00;99.90
8095;DHT22;4090;49.270;8.696;2023-04-03T01:39:52;6.90;99.90
8095;DHT22;4090;49.270;8.696;2023-04-03T01:42:34;6.90;99.90
8095;DHT22;4090;49.270;8.696;2023-04-03T01:45:16;6.90;99.90
8095;DHT22;4090;49.270;8.696;2023-04-03T01:47:59;6.90;99.90
8095;DHT22;4090;49.270;8.696;2023-04-03T01:50:41;6.90;99.90
8095;DHT22;4090;49.270;8.696;2023-04-03T01:53:23;6.90;99.90
8095;DHT22;4090;49.270;8.696;2023-04-03T01:56:05;6.90;99.90
8095;DHT22;4090;49.270;8.696;2023-04-03T01:58:47;6.80;99.90
8095;DHT22;4090;49.270;8.696;2023-04-03T02:01:29;6.90;99.90
8095;DHT22;4090;49.270;8.696;2023-04-03T02:04:12;6.90;99.90
8095;DHT22;4090;49.270;8.696;2023-04-03T02:06:55;6.80;99.90
8095;DHT22;4090;49.270;8.696;2023-04-03T02:09:36;6.80;99.90
8095;DHT22;4090;49.270;8.696;2023-04-03T02:12:18;6.80;99.90
8095;DHT22;4090;49.270;8.696;2023-04-03T02:15:00;6.80;99.90
8095;DHT22;4090;49.270;8.696;2023-04-03T02:17:42;6.70;99.90
8095;DHT22;4090;49.270;8.696;2023-04-03T02:20:25;6.70;99.90
8095;DHT22;4090;49.270;8.696;2023-04-03T02:23:07;6.70;99.90
8095;DHT22;4090;49.270;8.696;2023-04-03T02:25:49;6.70;99.90
8095;DHT22;4090;49.270;8.696;2023-04-03T02:28:30;6.60;99.90
8095;DHT22;4090;49.270;8.696;2023-04-03T02:31:12;6.70;99.90
8095;DHT22;4090;49.270;8.696;2023-04-03T02:33:56;6.70;99.90
8095;DHT22;4090;49.270;8.696;2023-04-03T02:36:39;6.60;99.90
8095;DHT22;4090;49.270;8.696;2023-04-03T02:39:23;6.60;99.90
8095;DHT22;4090;49.270;8.696;2023-04-03T02:42:05;6.60;99.90
8095;DHT22;4090;49.270;8.696;2023-04-03T02:44:48;6.50;99.90
8095;DHT22;4090;49.270;8.696;2023-04-03T02:47:29;6.50;99.90
8095;DHT22;4090;49.270;8.696;2023-04-03T02:50:11;6.50;99.90
8095;DHT22;4090;49.270;8.696;2023-04-03T02:52:54;6.50;99.90
8095;DHT22;4090;49.270;8.696;2023-04-03T02:55:36;6.50;99.90
8095;DHT22;4090;49.270;8.696;2023-04-03T02:58:18;6.50;99.90
8095;DHT22;4090;49.270;8.696;2023-04-03T03:01:00;6.50;99.90
8095;DHT22;4090;49.270;8.696;2023-04-03T03:03:41;6.50;99.90
8095;DHT22;4090;49.270;8.696;2023-04-03T03:06:23;6.50;99.90
8095;DHT22;4090;49.270;8.696;2023-04-03T03:09:06;6.50;99.90
8095;DHT22;4090;49.270;8.696;2023-04-03T03:11:48;6.50;99.90
8095;DHT22;4090;49.270;8.696;2023-04-03T03:14:30;6.50;99.90
8095;DHT22;4090;49.270;8.696;2023-04-03T03:17:12;6.50;99.90
8095;DHT22;4090;49.270;8.696;2023-04-03T03:19:54;6.50;99.90
8095;DHT22;4090;49.270;8.696;2023-04-03T03:22:35;6.60;99.90
8095;DHT22;4090;49.270;8.696;2023-04-03T03:25:19;6.60;99.90
8095;DHT22;4090;49.270;8.696;2023-04-03T03:28:01;6.60;99.90
8095;DHT22;4090;49.270;8.696;2023-04-03T03:30:43;6.60;99.90
8095;DHT22;4090;49.270;8.696;2023-04-03T03:33:25;6.60;99.90
8095;DHT22;4090;49.270;8.696;2023-04-03T03:36:07;6.60;99.90
8095;DHT22;4090;49.270;8.696;2023-04-03T03:38:50;6.60;99.90
8095;DHT22;4090;49.270;8.696;2023-04-03T03:41:33;6.60;99.90
8095;DHT22;4090;49.270;8.696;2023-04-03T03:44:15;6.60;99.90
8095;DHT22;4090;49.270;8.696;2023-04-03T03:46:57;6.60;99.90
8095;DHT22;4090;49.270;8.696;2023-04-03T03:49:39;6.60;99.90
8095;DHT22;4090;49.270;8.696;2023-04-03T03:52:21;6.70;99.90
8095;DHT22;4090;49.270;8.696;2023-04-03T03:55:03;6.60;99.90
8095;DHT22;4090;49.270;8.696;2023-04-03T03:57:47;6.60;99.90
8095;DHT22;4090;49.270;8.696;2023-04-03T04:00:28;6.60;99.90
8095;DHT22;4090;49.270;8.696;2023-04-03T04:03:11;6.60;99.90
8095;DHT22;4090;49.270;8.696;2023-04-03T04:05:54;6.60;99.90
8095;DHT22;4090;49.270;8.696;2023-04-03T04:08:36;6.50;99.90
8095;DHT22;4090;49.270;8.696;2023-04-03T04:11:21;6.50;99.90
8095;DHT22;4090;49.270;8.696;2023-04-03T04:14:05;6.50;99.90
8095;DHT22;4090;49.270;8.696;2023-04-03T04:16:48;6.40;99.90
8095;DHT22;4090;49.270;8.696;2023-04-03T04:19:35;6.40;99.90
8095;DHT22;4090;49.270;8.696;2023-04-03T04:22:17;6.40;99.90
8095;DHT22;4090;49.270;8.696;2023-04-03T04:24:59;6.30;99.90
8095;DHT22;4090;49.270;8.696;2023-04-03T04:27:40;6.30;99.90
8095;DHT22;4090;49.270;8.696;2023-04-03T04:30:24;6.30;99.90
8095;DHT22;4090;49.270;8.696;2023-04-03T04:33:07;6.30;99.90
8095;DHT22;4090;49.270;8.696;2023-04-03T04:35:49;6.20;99.90
8095;DHT22;4090;49.270;8.696;2023-04-03T04:38:34;6.20;99.90
8095;DHT22;4090;49.270;8.696;2023-04-03T04:41:16;6.20;99.90
8095;DHT22;4090;49.270;8.696;2023-04-03T04:43:59;6.20;99.90
8095;DHT22;4090;49.270;8.696;2023-04-03T04:46:42;6.20;99.90
8095;DHT22;4090;49.270;8.696;2023-04-03T04:49:24;6.20;99.90
8095;DHT22;4090;49.270;8.696;2023-04-03T04:52:06;6.10;99.90
8095;DHT22;4090;49.270;8.696;2023-04-03T04:54:49;6.10;99.90
8095;DHT22;4090;49.270;8.696;2023-04-03T04:57:31;6.10;99.90
8095;DHT22;4090;49.270;8.696;2023-04-03T05:00:14;6.10;99.90
8095;DHT22;4090;49.270;8.696;2023-04-03T05:02:57;6.00;99.90
8095;DHT22;4090;49.270;8.696;2023-04-03T05:05:39;6.10;99.90
8095;DHT22;4090;49.270;8.696;2023-04-03T05:08:21;6.00;99.90
8095;DHT22;4090;49.270;8.696;2023-04-03T05:11:03;6.00;99.90
8095;DHT22;4090;49.270;8.696;2023-04-03T05:13:46;6.00;99.90
8095;DHT22;4090;49.270;8.696;2023-04-03T05:16:27;6.00;99.90
8095;DHT22;4090;49.270;8.696;2023-04-03T05:19:11;6.00;99.90
8095;DHT22;4090;49.270;8.696;2023-04-03T05:21:54;6.00;99.90
8095;DHT22;4090;49.270;8.696;2023-04-03T05:24:37;6.00;99.90
8095;DHT22;4090;49.270;8.696;2023-04-03T05:27:20;6.00;99.90
8095;DHT22;4090;49.270;8.696;2023-04-03T05:30:08;6.00;99.90
8095;DHT22;4090;49.270;8.696;2023-04-03T05:32:52;6.00;99.90
8095;DHT22;4090;49.270;8.696;2023-04-03T05:35:43;6.00;99.90
8095;DHT22;4090;49.270;8.696;2023-04-03T05:38:32;6.00;99.90
8095;DHT22;4090;49.270;8.696;2023-04-03T05:41:14;5.90;99.90
8095;DHT22;4090;49.270;8.696;2023-04-03T05:43:58;5.90;99.90
8095;DHT22;4090;49.270;8.696;2023-04-03T05:46:40;6.00;99.90
8095;DHT22;4090;49.270;8.696;2023-04-03T05:49:24;5.90;99.90
8095;DHT22;4090;49.270;8.696;2023-04-03T05:52:08;5.90;99.90
8095;DHT22;4090;49.270;8.696;2023-04-03T05:54:51;5.90;99.90
8095;DHT22;4090;49.270;8.696;2023-04-03T05:57:38;5.90;99.90
8095;DHT22;4090;49.270;8.696;2023-04-03T06:00:20;5.90;99.90
8095;DHT22;4090;49.270;8.696;2023-04-03T06:03:11;5.90;99.90
8095;DHT22;4090;49.270;8.696;2023-04-03T06:05:53;5.90;99.90
8095;DHT22;4090;49.270;8.696;2023-04-03T06:08:36;5.90;99.90
8095;DHT22;4090;49.270;8.696;2023-04-03T06:11:19;5.90;99.90
8095;DHT22;4090;49.270;8.696;2023-04-03T06:14:03;5.90;99.90
8095;DHT22;4090;49.270;8.696;2023-04-03T06:16:45;5.90;99.90
8095;DHT22;4090;49.270;8.696;2023-04-03T06:19:27;5.90;99.90
8095;DHT22;4090;49.270;8.696;2023-04-03T06:22:10;5.90;99.90
8095;DHT22;4090;49.270;8.696;2023-04-03T06:24:54;5.90;99.90
8095;DHT22;4090;49.270;8.696;2023-04-03T06:27:36;5.90;99.90
8095;DHT22;4090;49.270;8.696;2023-04-03T06:30:18;6.00;99.90
8095;DHT22;4090;49.270;8.696;2023-04-03T06:33:00;6.00;99.90
8095;DHT22;4090;49.270;8.696;2023-04-03T06:35:42;6.00;99.90
8095;DHT22;4090;49.270;8.696;2023-04-03T06:38:23;5.90;99.90
8095;DHT22;4090;49.270;8.696;2023-04-03T06:41:07;5.90;99.90
8095;DHT22;4090;49.270;8.696;2023-04-03T06:43:48;5.90;99.90
8095;DHT22;4090;49.270;8.696;2023-04-03T06:46:31;6.00;99.90
8095;DHT22;4090;49.270;8.696;2023-04-03T06:49:13;6.00;99.90
8095;DHT22;4090;49.270;8.696;2023-04-03T06:51:55;6.00;99.90
8095;DHT22;4090;49.270;8.696;2023-04-03T06:54:37;6.00;99.90
8095;DHT22;4090;49.270;8.696;2023-04-03T06:57:20;6.00;99.90
8095;DHT22;4090;49.270;8.696;2023-04-03T07:00:03;6.00;99.90
8095;DHT22;4090;49.270;8.696;2023-04-03T07:02:45;6.00;99.90
8095;DHT22;4090;49.270;8.696;2023-04-03T07:05:26;6.00;99.90
8095;DHT22;4090;49.270;8.696;2023-04-03T07:08:08;6.00;99.90
8095;DHT22;4090;49.270;8.696;2023-04-03T07:10:50;6.00;99.90
8095;DHT22;4090;49.270;8.696;2023-04-03T07:13:33;6.10;99.90
8095;DHT22;4090;49.270;8.696;2023-04-03T07:16:15;6.00;99.90
8095;DHT22;4090;49.270;8.696;2023-04-03T07:18:57;6.10;99.90
8095;DHT22;4090;49.270;8.696;2023-04-03T07:21:39;6.10;99.90
8095;DHT22;4090;49.270;8.696;2023-04-03T07:24:22;6.00;99.90
8095;DHT22;4090;49.270;8.696;2023-04-03T07:27:04;6.00;99.90
8095;DHT22;4090;49.270;8.696;2023-04-03T07:29:47;6.10;99.90
8095;DHT22;4090;49.270;8.696;2023-04-03T07:32:30;6.10;99.90
8095;DHT22;4090;49.270;8.696;2023-04-03T07:35:12;6.10;99.90
8095;DHT22;4090;49.270;8.696;2023-04-03T07:37:53;6.10;99.90
8095;DHT22;4090;49.270;8.696;2023-04-03T07:40:35;6.20;99.90
8095;DHT22;4090;49.270;8.696;2023-04-03T07:43:18;6.20;99.90
8095;DHT22;4090;49.270;8.696;2023-04-03T07:46:02;6.20;99.90
8095;DHT22;4090;49.270;8.696;2023-04-03T07:48:46;6.20;99.90
8095;DHT22;4090;49.270;8.696;2023-04-03T07:51:27;6.20;99.90
8095;DHT22;4090;49.270;8.696;2023-04-03T07:54:10;6.30;99.90
8095;DHT22;4090;49.270;8.696;2023-04-03T07:56:52;6.20;99.90
8095;DHT22;4090;49.270;8.696;2023-04-03T07:59:33;6.30;99.90
8095;DHT22;4090;49.270;8.696;2023-04-03T08:02:17;6.30;99.90
8095;DHT22;4090;49.270;8.696;2023-04-03T08:04:58;6.30;99.90
8095;DHT22;4090;49.270;8.696;2023-04-03T08:07:40;6.40;99.90
8095;DHT22;4090;49.270;8.696;2023-04-03T08:10:23;6.40;99.90
8095;DHT22;4090;49.270;8.696;2023-04-03T08:13:05;6.40;99.90
8095;DHT22;4090;49.270;8.696;2023-04-03T08:15:47;6.50;99.90
8095;DHT22;4090;49.270;8.696;2023-04-03T08:18:30;6.50;99.90
8095;DHT22;4090;49.270;8.696;2023-04-03T08:21:12;6.60;99.90
8095;DHT22;4090;49.270;8.696;2023-04-03T08:23:54;6.60;99.90
8095;DHT22;4090;49.270;8.696;2023-04-03T08:26:36;6.70;99.90
8095;DHT22;4090;49.270;8.696;2023-04-03T08:29:18;6.70;99.90
8095;DHT22;4090;49.270;8.696;2023-04-03T08:32:00;6.80;99.90
8095;DHT22;4090;49.270;8.696;2023-04-03T08:34:43;6.80;99.90
8095;DHT22;4090;49.270;8.696;2023-04-03T08:37:25;6.90;99.90
8095;DHT22;4090;49.270;8.696;2023-04-03T08:40:08;6.90;99.90
8095;DHT22;4090;49.270;8.696;2023-04-03T08:42:57;7.00;99.90
8095;DHT22;4090;49.270;8.696;2023-04-03T08:45:45;7.10;99.90
8095;DHT22;4090;49.270;8.696;2023-04-03T08:48:29;7.10;99.90
8095;DHT22;4090;49.270;8.696;2023-04-03T08:51:14;7.20;99.90
8095;DHT22;4090;49.270;8.696;2023-04-03T08:53:56;7.30;99.90
8095;DHT22;4090;49.270;8.696;2023-04-03T08:56:40;7.30;99.90
8095;DHT22;4090;49.270;8.696;2023-04-03T08:59:24;7.40;99.90
8095;DHT22;4090;49.270;8.696;2023-04-03T09:02:14;7.40;99.90
8095;DHT22;4090;49.270;8.696;2023-04-03T09:04:57;7.40;99.90
8095;DHT22;4090;49.270;8.696;2023-04-03T09:07:42;7.50;99.90
8095;DHT22;4090;49.270;8.696;2023-04-03T09:10:27;7.50;99.90
8095;DHT22;4090;49.270;8.696;2023-04-03T09:13:11;7.50;99.90
8095;DHT22;4090;49.270;8.696;2023-04-03T09:15:55;7.60;99.90
8095;DHT22;4090;49.270;8.696;2023-04-03T09:18:38;7.60;99.90
8095;DHT22;4090;49.270;8.696;2023-04-03T09:21:24;7.70;99.90
8095;DHT22;4090;49.270;8.696;2023-04-03T09:24:09;7.80;99.90
8095;DHT22;4090;49.270;8.696;2023-04-03T09:26:53;7.80;99.90
8095;DHT22;4090;49.270;8.696;2023-04-03T09:29:37;7.90;99.90
8095;DHT22;4090;49.270;8.696;2023-04-03T09:32:22;8.00;99.90
8095;DHT22;4090;49.270;8.696;2023-04-03T09:35:13;8.00;99.90
8095;DHT22;4090;49.270;8.696;2023-04-03T09:37:58;8.10;99.90
8095;DHT22;4090;49.270;8.696;2023-04-03T09:40:43;8.20;99.90
8095;DHT22;4090;49.270;8.696;2023-04-03T09:43:26;8.30;99.90
8095;DHT22;4090;49.270;8.696;2023-04-03T09:46:21;8.30;99.90
8095;DHT22;4090;49.270;8.696;2023-04-03T09:49:08;8.30;99.90
8095;DHT22;4090;49.270;8.696;2023-04-03T09:51:52;8.40;99.90
8095;DHT22;4090;49.270;8.696;2023-04-03T09:54:35;8.40;99.90
8095;DHT22;4090;49.270;8.696;2023-04-03T09:57:22;8.40;99.90
8095;DHT22;4090;49.270;8.696;2023-04-03T10:00:20;8.50;99.90
8095;DHT22;4090;49.270;8.696;2023-04-03T10:03:03;8.50;99.90
8095;DHT22;4090;49.270;8.696;2023-04-03T10:05:45;8.60;99.90
8095;DHT22;4090;49.270;8.696;2023-04-03T10:08:28;8.60;99.90
8095;DHT22;4090;49.270;8.696;2023-04-03T10:11:13;8.70;99.90
8095;DHT22;4090;49.270;8.696;2023-04-03T10:13:57;8.80;99.90
8095;DHT22;4090;49.270;8.696;2023-04-03T10:16:41;8.80;99.90
8095;DHT22;4090;49.270;8.696;2023-04-03T10:19:34;8.90;99.90
8095;DHT22;4090;49.270;8.696;2023-04-03T10:22:18;9.00;99.90
8095;DHT22;4090;49.270;8.696;2023-04-03T10:25:02;9.00;99.90
8095;DHT22;4090;49.270;8.696;2023-04-03T10:27:48;9.10;99.90
8095;DHT22;4090;49.270;8.696;2023-04-03T10:30:36;9.10;99.90
8095;DHT22;4090;49.270;8.696;2023-04-03T10:33:31;9.20;99.90
8095;DHT22;4090;49.270;8.696;2023-04-03T10:36:21;9.30;99.90
8095;DHT22;4090;49.270;8.696;2023-04-03T10:39:10;9.30;99.90
8095;DHT22;4090;49.270;8.696;2023-04-03T10:41:56;9.40;99.90
8095;DHT22;4090;49.270;8.696;2023-04-03T10:44:41;9.40;99.90
8095;DHT22;4090;49.270;8.696;2023-04-03T10:47:27;9.50;99.90
8095;DHT22;4090;49.270;8.696;2023-04-03T10:50:20;9.60;99.90
8095;DHT22;4090;49.270;8.696;2023-04-03T10:53:04;9.70;99.90
8095;DHT22;4090;49.270;8.696;2023-04-03T10:55:49;9.80;99.90
8095;DHT22;4090;49.270;8.696;2023-04-03T10:58:34;9.80;99.90
8095;DHT22;4090;49.270;8.696;2023-04-03T11:01:18;10.00;99.90
8095;DHT22;4090;49.270;8.696;2023-04-03T11:04:03;10.10;99.90
8095;DHT22;4090;49.270;8.696;2023-04-03T11:06:47;10.30;99.70
8095;DHT22;4090;49.270;8.696;2023-04-03T11:09:32;10.40;98.30
8095;DHT22;4090;49.270;8.696;2023-04-03T11:12:16;10.50;99.70
8095;DHT22;4090;49.270;8.696;2023-04-03T11:14:58;10.60;99.30
8095;DHT22;4090;49.270;8.696;2023-04-03T11:17:43;10.60;98.80
8095;DHT22;4090;49.270;8.696;2023-04-03T11:20:28;10.70;98.90
8095;DHT22;4090;49.270;8.696;2023-04-03T11:23:15;10.70;99.40
8095;DHT22;4090;49.270;8.696;2023-04-03T11:26:04;10.70;98.40
8095;DHT22;4090;49.270;8.696;2023-04-03T11:28:52;10.80;98.30
8095;DHT22;4090;49.270;8.696;2023-04-03T11:31:38;10.80;97.80
8095;DHT22;4090;49.270;8.696;2023-04-03T11:34:26;10.80;97.20
8095;DHT22;4090;49.270;8.696;2023-04-03T11:37:17;10.80;96.80
8095;DHT22;4090;49.270;8.696;2023-04-03T11:40:04;10.80;96.30
8095;DHT22;4090;49.270;8.696;2023-04-03T11:42:47;10.80;95.70
8095;DHT22;4090;49.270;8.696;2023-04-03T11:45:34;10.90;94.60
8095;DHT22;4090;49.270;8.696;2023-04-03T11:57:46;10.90;94.20
8095;DHT22;4090;49.270;8.696;2023-04-03T12:00:47;10.90;94.80
8095;DHT22;4090;49.270;8.696;2023-04-03T12:12:56;10.80;96.00
8095;DHT22;4090;49.270;8.696;2023-04-03T12:18:40;10.80;96.20
8095;DHT22;4090;49.270;8.696;2023-04-03T12:21:24;10.70;95.50
8095;DHT22;4090;49.270;8.696;2023-04-03T12:24:25;10.70;95.30
8095;DHT22;4090;49.270;8.696;2023-04-03T12:27:21;10.70;94.50
8095;DHT22;4090;49.270;8.696;2023-04-03T12:30:12;10.70;95.20
8095;DHT22;4090;49.270;8.696;2023-04-03T12:32:57;10.70;94.60
8095;DHT22;4090;49.270;8.696;2023-04-03T12:35:47;10.70;94.50
8095;DHT22;4090;49.270;8.696;2023-04-03T12:38:40;10.80;94.60
8095;DHT22;4090;49.270;8.696;2023-04-03T12:41:25;10.80;94.50
8095;DHT22;4090;49.270;8.696;2023-04-03T12:44:16;10.80;94.30
8095;DHT22;4090;49.270;8.696;2023-04-03T12:47:04;10.80;93.30
8095;DHT22;4090;49.270;8.696;2023-04-03T12:49:50;10.80;94.60
8095;DHT22;4090;49.270;8.696;2023-04-03T12:52:33;10.80;95.00
8095;DHT22;4090;49.270;8.696;2023-04-03T12:55:18;10.80;94.50
8095;DHT22;4090;49.270;8.696;2023-04-03T12:58:12;10.80;94.10
8095;DHT22;4090;49.270;8.696;2023-04-03T13:00:59;10.70;93.30
8095;DHT22;4090;49.270;8.696;2023-04-03T13:03:42;10.70;93.70
8095;DHT22;4090;49.270;8.696;2023-04-03T13:06:26;10.70;94.80
8095;DHT22;4090;49.270;8.696;2023-04-03T13:09:18;10.70;94.30
8095;DHT22;4090;49.270;8.696;2023-04-03T13:12:02;10.70;94.00
8095;DHT22;4090;49.270;8.696;2023-04-03T13:14:51;10.70;93.90
8095;DHT22;4090;49.270;8.696;2023-04-03T13:17:33;10.70;94.40
8095;DHT22;4090;49.270;8.696;2023-04-03T13:20:22;10.70;94.40
8095;DHT22;4090;49.270;8.696;2023-04-03T13:23:05;10.70;93.80
8095;DHT22;4090;49.270;8.696;2023-04-03T13:25:49;10.70;93.10
8095;DHT22;4090;49.270;8.696;2023-04-03T13:28:31;10.70;93.10
8095;DHT22;4090;49.270;8.696;2023-04-03T13:31:17;10.80;92.70
8095;DHT22;4090;49.270;8.696;2023-04-03T13:34:02;10.80;92.60
8095;DHT22;4090;49.270;8.696;2023-04-03T13:36:54;10.80;93.20
8095;DHT22;4090;49.270;8.696;2023-04-03T13:39:37;10.90;93.90
8095;DHT22;4090;49.270;8.696;2023-04-03T13:42:21;10.90;93.90
8095;DHT22;4090;49.270;8.696;2023-04-03T13:45:11;10.90;94.10
8095;DHT22;4090;49.270;8.696;2023-04-03T13:48:09;10.90;94.00
8095;DHT22;4090;49.270;8.696;2023-04-03T13:50:57;11.00;93.90
8095;DHT22;4090;49.270;8.696;2023-04-03T13:53:43;11.00;93.10
8095;DHT22;4090;49.270;8.696;2023-04-03T13:56:27;11.00;92.00
8095;DHT22;4090;49.270;8.696;2023-04-03T13:59:20;11.00;91.80
8095;DHT22;4090;49.270;8.696;2023-04-03T14:02:12;11.00;91.80
8095;DHT22;4090;49.270;8.696;2023-04-03T14:04:55;11.00;91.80
8095;DHT22;4090;49.270;8.696;2023-04-03T14:07:40;11.10;90.00
8095;DHT22;4090;49.270;8.696;2023-04-03T14:10:23;11.10;91.40
8095;DHT22;4090;49.270;8.696;2023-04-03T14:13:05;11.10;90.10
8095;DHT22;4090;49.270;8.696;2023-04-03T14:15:47;11.20;89.70
8095;DHT22;4090;49.270;8.696;2023-04-03T14:18:29;11.30;89.50
8095;DHT22;4090;49.270;8.696;2023-04-03T14:21:11;11.40;89.50
8095;DHT22;4090;49.270;8.696;2023-04-03T14:23:53;11.50;90.10
8095;DHT22;4090;49.270;8.696;2023-04-03T14:26:36;11.60;90.20
8095;DHT22;4090;49.270;8.696;2023-04-03T14:29:18;11.60;87.80
8095;DHT22;4090;49.270;8.696;2023-04-03T14:32:00;11.70;86.20
8095;DHT22;4090;49.270;8.696;2023-04-03T14:34:42;11.70;88.70
8095;DHT22;4090;49.270;8.696;2023-04-03T14:37:26;11.80;87.60
8095;DHT22;4090;49.270;8.696;2023-04-03T14:40:11;11.80;86.30
8095;DHT22;4090;49.270;8.696;2023-04-03T14:42:55;11.80;85.70
8095;DHT22;4090;49.270;8.696;2023-04-03T14:45:37;11.80;82.50
8095;DHT22;4090;49.270;8.696;2023-04-03T14:48:21;11.80;82.60
8095;DHT22;4090;49.270;8.696;2023-04-03T14:51:03;11.90;82.50
8095;DHT22;4090;49.270;8.696;2023-04-03T14:53:45;12.00;82.80
8095;DHT22;4090;49.270;8.696;2023-04-03T14:56:28;12.10;83.50
8095;DHT22;4090;49.270;8.696;2023-04-03T14:59:12;12.20;82.70
8095;DHT22;4090;49.270;8.696;2023-04-03T15:01:54;12.30;82.80
8095;DHT22;4090;49.270;8.696;2023-04-03T15:04:36;12.40;81.60
8095;DHT22;4090;49.270;8.696;2023-04-03T15:07:18;12.40;79.40
8095;DHT22;4090;49.270;8.696;2023-04-03T15:10:00;12.50;80.00
8095;DHT22;4090;49.270;8.696;2023-04-03T15:12:43;12.60;80.40
8095;DHT22;4090;49.270;8.696;2023-04-03T15:15:28;12.70;80.80
8095;DHT22;4090;49.270;8.696;2023-04-03T15:18:13;12.70;80.30
8095;DHT22;4090;49.270;8.696;2023-04-03T15:20:55;12.80;79.10
8095;DHT22;4090;49.270;8.696;2023-04-03T15:23:37;12.80;78.00
8095;DHT22;4090;49.270;8.696;2023-04-03T15:26:19;12.90;76.30
8095;DHT22;4090;49.270;8.696;2023-04-03T15:29:01;13.00;74.40
8095;DHT22;4090;49.270;8.696;2023-04-03T15:31:44;13.00;75.00
8095;DHT22;4090;49.270;8.696;2023-04-03T15:34:26;13.10;76.00
8095;DHT22;4090;49.270;8.696;2023-04-03T15:37:07;13.10;75.20
8095;DHT22;4090;49.270;8.696;2023-04-03T15:39:49;13.20;75.00
8095;DHT22;4090;49.270;8.696;2023-04-03T15:42:31;13.20;74.50
8095;DHT22;4090;49.270;8.696;2023-04-03T15:45:13;13.20;73.90
8095;DHT22;4090;49.270;8.696;2023-04-03T15:47:56;13.20;74.80
8095;DHT22;4090;49.270;8.696;2023-04-03T15:50:39;13.20;72.20
8095;DHT22;4090;49.270;8.696;2023-04-03T15:53:20;13.30;74.30
8095;DHT22;4090;49.270;8.696;2023-04-03T15:56:02;13.30;73.80
8095;DHT22;4090;49.270;8.696;2023-04-03T15:58:45;13.30;75.00
8095;DHT22;4090;49.270;8.696;2023-04-03T16:01:26;13.30;73.20
8095;DHT22;4090;49.270;8.696;2023-04-03T16:04:09;13.30;74.90
8095;DHT22;4090;49.270;8.696;2023-04-03T16:06:51;13.40;76.30
8095;DHT22;4090;49.270;8.696;2023-04-03T16:09:33;13.40;73.90
8095;DHT22;4090;49.270;8.696;2023-04-03T16:12:15;13.40;76.00
8095;DHT22;4090;49.270;8.696;2023-04-03T16:14:57;13.40;74.10
8095;DHT22;4090;49.270;8.696;2023-04-03T16:17:39;13.40;73.60
8095;DHT22;4090;49.270;8.696;2023-04-03T16:20:23;13.30;75.30
8095;DHT22;4090;49.270;8.696;2023-04-03T16:23:05;13.20;74.90
8095;DHT22;4090;49.270;8.696;2023-04-03T16:25:47;13.20;76.00
8095;DHT22;4090;49.270;8.696;2023-04-03T16:28:30;13.20;74.10
8095;DHT22;4090;49.270;8.696;2023-04-03T16:31:12;13.10;72.60
8095;DHT22;4090;49.270;8.696;2023-04-03T16:33:54;13.00;73.30
8095;DHT22;4090;49.270;8.696;2023-04-03T16:36:37;13.00;73.20
8095;DHT22;4090;49.270;8.696;2023-04-03T16:39:19;13.00;71.50
8095;DHT22;4090;49.270;8.696;2023-04-03T16:42:00;12.90;71.60
8095;DHT22;4090;49.270;8.696;2023-04-03T16:44:43;12.90;73.60
8095;DHT22;4090;49.270;8.696;2023-04-03T16:47:24;12.80;72.80
8095;DHT22;4090;49.270;8.696;2023-04-03T16:50:06;12.80;72.50
8095;DHT22;4090;49.270;8.696;2023-04-03T16:52:50;12.70;71.30
8095;DHT22;4090;49.270;8.696;2023-04-03T16:55:31;12.70;70.80
8095;DHT22;4090;49.270;8.696;2023-04-03T16:58:13;12.60;71.10
8095;DHT22;4090;49.270;8.696;2023-04-03T17:00:55;12.50;73.40
8095;DHT22;4090;49.270;8.696;2023-04-03T17:03:37;12.50;73.80
8095;DHT22;4090;49.270;8.696;2023-04-03T17:06:19;12.40;73.70
8095;DHT22;4090;49.270;8.696;2023-04-03T17:09:02;12.40;73.60
8095;DHT22;4090;49.270;8.696;2023-04-03T17:11:44;12.30;72.50
8095;DHT22;4090;49.270;8.696;2023-04-03T17:14:26;12.20;72.60
8095;DHT22;4090;49.270;8.696;2023-04-03T17:17:08;12.20;72.10
8095;DHT22;4090;49.270;8.696;2023-04-03T17:19:50;12.10;72.50
8095;DHT22;4090;49.270;8.696;2023-04-03T17:22:34;12.00;73.80
8095;DHT22;4090;49.270;8.696;2023-04-03T17:25:17;12.00;75.50
8095;DHT22;4090;49.270;8.696;2023-04-03T17:27:59;11.90;75.40
8095;DHT22;4090;49.270;8.696;2023-04-03T17:30:40;11.90;74.20
8095;DHT22;4090;49.270;8.696;2023-04-03T17:33:22;11.80;73.70
8095;DHT22;4090;49.270;8.696;2023-04-03T17:36:04;11.70;73.40
8095;DHT22;4090;49.270;8.696;2023-04-03T17:38:49;11.60;73.20
8095;DHT22;4090;49.270;8.696;2023-04-03T17:41:32;11.50;74.90
8095;DHT22;4090;49.270;8.696;2023-04-03T17:44:14;11.50;74.90
8095;DHT22;4090;49.270;8.696;2023-04-03T17:46:55;11.40;73.60
8095;DHT22;4090;49.270;8.696;2023-04-03T17:49:37;11.30;74.10
8095;DHT22;4090;49.270;8.696;2023-04-03T17:52:19;11.20;74.50
8095;DHT22;4090;49.270;8.696;2023-04-03T17:55:03;11.10;76.20
8095;DHT22;4090;49.270;8.696;2023-04-03T17:57:47;11.10;76.10
8095;DHT22;4090;49.270;8.696;2023-04-03T18:00:28;11.00;77.00
8095;DHT22;4090;49.270;8.696;2023-04-03T18:03:10;11.00;76.40
8095;DHT22;4090;49.270;8.696;2023-04-03T18:05:52;10.90;76.90
8095;DHT22;4090;49.270;8.696;2023-04-03T18:08:34;10.80;77.60
8095;DHT22;4090;49.270;8.696;2023-04-03T18:11:17;10.80;77.30
8095;DHT22;4090;49.270;8.696;2023-04-03T18:14:02;10.70;78.10
8095;DHT22;4090;49.270;8.696;2023-04-03T18:16:45;10.70;78.80
8095;DHT22;4090;49.270;8.696;2023-04-03T18:19:26;10.60;78.60
8095;DHT22;4090;49.270;8.696;2023-04-03T18:22:12;10.60;80.30
8095;DHT22;4090;49.270;8.696;2023-04-03T18:24:55;10.50;80.90